Time;durP1;ratioP1;P1;durP2;ratioP2;P2;SDS_P1;SDS_P2;PMS_P1;PMS_P2;Temp;Humidity;BMP_temperature;BMP_pressure;BME280_temperature;BME280_humidity;BME280_pressure;Samples;Min_cycle;Max_cycle;Signal;HPM_P1;HPM_P2
2022/08/28 00:01:26;;;;;;;3.13;1.77;;;17.70;99.90;;;;;;5095062;28;20463;-75
2022/08/28 00:03:53;;;;;;;3.90;2.20;;;17.70;99.90;;;;;;5095069;28;20483;-75
2022/08/28 00:06:20;;;;;;;2.83;1.40;;;17.70;99.90;;;;;;5094684;28;20962;-75
2022/08/28 00:08:47;;;;;;;5.30;1.90;;;17.70;99.90;;;;;;5094901;28;20472;-75
2022/08/28 00:11:14;;;;;;;6.00;2.87;;;17.80;99.90;;;;;;5094854;28;20788;-75
2022/08/28 00:13:42;;;;;;;3.80;1.70;;;17.80;99.90;;;;;;5094759;28;20451;-75
2022/08/28 00:16:09;;;;;;;3.10;1.77;;;17.80;99.90;;;;;;5094811;28;20455;-74
2022/08/28 00:18:35;;;;;;;5.77;2.13;;;17.80;99.90;;;;;;5094796;28;20447;-75
2022/08/28 00:21:02;;;;;;;5.33;2.10;;;17.90;99.90;;;;;;5094675;28;20455;-75
2022/08/28 00:23:31;;;;;;;6.20;1.77;;;17.90;99.90;;;;;;5094340;28;20955;-75
2022/08/28 00:25:58;;;;;;;4.07;1.50;;;17.90;99.90;;;;;;5094141;28;21054;-75
2022/08/28 00:28:24;;;;;;;3.30;2.07;;;17.90;99.90;;;;;;5094521;28;20475;-75
2022/08/28 00:30:54;;;;;;;4.97;2.87;;;18.00;99.90;;;;;;5094523;28;20447;-75
2022/08/28 00:33:24;;;;;;;3.37;1.90;;;18.00;99.90;;;;;;5094461;28;20221;-75
2022/08/28 00:35:51;;;;;;;4.53;2.83;;;18.00;99.90;;;;;;5094738;28;20455;-74
2022/08/28 00:38:19;;;;;;;7.20;2.47;;;18.00;99.90;;;;;;5094408;28;20448;-75
2022/08/28 00:40:49;;;;;;;2.90;1.87;;;18.00;99.90;;;;;;5094366;28;20496;-75
2022/08/28 00:43:32;;;;;;;2.50;1.70;;;18.00;99.90;;;;;;5094228;28;20464;-75
2022/08/28 00:46:00;;;;;;;5.50;2.50;;;18.00;99.90;;;;;;5094018;28;20432;-75
2022/08/28 00:48:27;;;;;;;4.00;2.23;;;17.90;99.90;;;;;;5093867;28;21002;-75
2022/08/28 00:53:38;;;;;;;2.50;2.10;;;18.00;99.90;;;;;;5093951;28;20404;-75
2022/08/28 00:56:08;;;;;;;5.10;2.43;;;18.00;99.90;;;;;;5093761;28;20444;-75
2022/08/28 00:58:35;;;;;;;4.37;2.87;;;18.00;99.90;;;;;;5094096;28;20432;-75
2022/08/28 01:01:04;;;;;;;6.57;2.97;;;17.90;99.90;;;;;;5093654;28;20958;-75
2022/08/28 01:03:31;;;;;;;16.50;3.90;;;17.90;99.90;;;;;;5093690;28;20444;-75
2022/08/28 01:05:58;;;;;;;5.60;2.77;;;18.00;99.90;;;;;;5093909;28;20452;-75
2022/08/28 01:08:25;;;;;;;7.87;2.57;;;18.00;99.90;;;;;;5093835;28;20475;-75
2022/08/28 01:10:55;;;;;;;4.20;1.90;;;18.00;99.90;;;;;;5093851;28;20448;-75
2022/08/28 01:13:24;;;;;;;5.83;3.30;;;18.00;99.90;;;;;;5093741;28;20490;-75
2022/08/28 01:15:51;;;;;;;6.83;2.80;;;18.00;99.90;;;;;;5093782;28;20444;-75
2022/08/28 01:18:21;;;;;;;4.83;2.93;;;18.00;99.90;;;;;;5093779;28;20436;-75
2022/08/28 01:20:55;;;;;;;4.10;2.70;;;18.00;99.90;;;;;;5093739;28;20439;-75
2022/08/28 01:23:32;;;;;;;4.10;2.63;;;18.00;99.90;;;;;;5093383;28;20458;-75
2022/08/28 01:26:00;;;;;;;4.07;1.63;;;18.00;99.90;;;;;;5093175;28;21025;-75
2022/08/28 01:28:27;;;;;;;3.00;1.67;;;18.00;99.90;;;;;;5093557;28;20495;-74
2022/08/28 01:30:54;;;;;;;2.27;1.77;;;18.00;99.90;;;;;;5093258;28;20458;-75
2022/08/28 01:33:21;;;;;;;4.50;2.00;;;18.00;99.90;;;;;;5093464;28;20475;-75
2022/08/28 01:35:49;;;;;;;6.67;2.37;;;18.00;99.90;;;;;;5093511;28;20451;-75
2022/08/28 01:38:17;;;;;;;6.00;2.93;;;18.00;99.90;;;;;;5093491;28;20436;-75
2022/08/28 01:40:48;;;;;;;4.53;2.20;;;18.00;99.90;;;;;;5093482;28;20448;-75
2022/08/28 01:43:18;;;;;;;6.57;2.90;;;18.00;99.90;;;;;;5093438;28;20472;-75
2022/08/28 01:45:47;;;;;;;5.73;3.23;;;18.00;99.90;;;;;;5093454;28;20529;-75
2022/08/28 01:48:15;;;;;;;5.03;2.50;;;17.90;99.90;;;;;;5093365;28;20839;-75
2022/08/28 01:50:42;;;;;;;3.00;2.00;;;17.90;99.90;;;;;;5093364;28;20812;-75
2022/08/28 01:53:12;;;;;;;6.80;3.37;;;17.90;99.90;;;;;;5093319;28;20468;-75
2022/08/28 01:55:40;;;;;;;4.00;2.00;;;17.90;99.90;;;;;;5093318;28;20451;-75
2022/08/28 01:58:07;;;;;;;5.70;2.83;;;17.90;99.90;;;;;;5093352;28;20436;-75
2022/08/28 02:00:36;;;;;;;4.77;2.70;;;17.90;99.90;;;;;;5093257;28;20793;-75
2022/08/28 02:03:03;;;;;;;3.80;2.07;;;17.90;99.90;;;;;;5093226;28;20845;-74
2022/08/28 02:05:32;;;;;;;4.73;1.90;;;17.90;99.90;;;;;;5093274;28;20444;-75
2022/08/28 02:08:01;;;;;;;5.00;2.03;;;17.90;99.90;;;;;;5093161;28;20524;-75
2022/08/28 02:10:29;;;;;;;10.03;3.07;;;18.00;99.90;;;;;;5093213;28;20543;-75
2022/08/28 02:12:57;;;;;;;6.50;2.40;;;18.00;99.90;;;;;;5093130;28;20827;-75
2022/08/28 02:15:25;;;;;;;6.80;3.20;;;18.00;99.90;;;;;;5093141;28;20455;-75
2022/08/28 02:17:54;;;;;;;4.43;2.83;;;18.00;99.90;;;;;;5093147;28;20444;-75
2022/08/28 02:20:21;;;;;;;7.30;2.50;;;18.00;99.90;;;;;;5093104;28;20518;-75
2022/08/28 02:22:49;;;;;;;3.10;2.17;;;18.00;99.90;;;;;;5093004;28;20815;-75
2022/08/28 02:25:16;;;;;;;5.50;2.10;;;18.00;99.90;;;;;;5092742;28;21018;-75
2022/08/28 02:27:44;;;;;;;3.37;2.17;;;18.00;99.90;;;;;;5092726;28;20470;-75
2022/08/28 02:30:14;;;;;;;5.20;2.20;;;18.00;99.90;;;;;;5092917;28;20484;-75
2022/08/28 02:32:41;;;;;;;4.17;3.13;;;18.00;99.90;;;;;;5092972;28;20468;-75
2022/08/28 02:35:11;;;;;;;4.40;2.67;;;18.00;99.90;;;;;;5092657;28;20966;-75
2022/08/28 02:37:38;;;;;;;2.03;1.57;;;18.00;99.90;;;;;;5096184;28;20451;-75
2022/08/28 02:40:06;;;;;;;5.50;2.47;;;18.00;99.90;;;;;;5096722;28;20530;-75
2022/08/28 02:42:33;;;;;;;5.57;2.03;;;18.00;99.90;;;;;;5096620;28;20470;-75
2022/08/28 02:44:59;;;;;;;5.17;2.23;;;18.00;99.90;;;;;;5096647;28;20448;-75
2022/08/28 02:47:26;;;;;;;6.47;3.20;;;18.10;99.90;;;;;;5096278;28;20444;-75
2022/08/28 02:49:53;;;;;;;5.53;2.70;;;18.10;99.90;;;;;;5096150;28;21021;-75
2022/08/28 02:52:23;;;;;;;5.43;2.33;;;18.10;99.90;;;;;;5096560;28;20476;-75
2022/08/28 02:54:50;;;;;;;5.90;3.40;;;18.10;99.90;;;;;;5096709;28;20473;-75
2022/08/28 02:57:16;;;;;;;3.70;2.23;;;18.10;99.90;;;;;;5096411;28;20447;-75
2022/08/28 02:59:44;;;;;;;3.47;1.83;;;18.10;99.90;;;;;;5096299;28;20444;-75
2022/08/28 03:02:11;;;;;;;4.60;2.30;;;18.10;99.90;;;;;;5096233;28;20474;-75
2022/08/28 03:04:38;;;;;;;5.30;1.83;;;18.10;99.90;;;;;;5095917;28;20993;-75
2022/08/28 03:07:06;;;;;;;4.43;2.13;;;18.00;99.90;;;;;;5096232;28;20451;-75
2022/08/28 03:09:34;;;;;;;4.00;1.97;;;18.00;99.90;;;;;;5096631;28;20468;-75
2022/08/28 03:12:01;;;;;;;4.40;2.40;;;18.10;99.90;;;;;;5096023;28;20467;-75
2022/08/28 03:14:27;;;;;;;9.70;3.27;;;18.00;99.90;;;;;;5096062;28;20448;-75
2022/08/28 03:16:54;;;;;;;5.80;2.30;;;18.10;99.90;;;;;;5096004;28;20440;-75
2022/08/28 03:19:21;;;;;;;6.57;4.30;;;18.10;99.90;;;;;;5095660;28;20444;-75
2022/08/28 03:21:48;;;;;;;5.07;2.13;;;18.10;99.90;;;;;;5095806;28;20475;-75
2022/08/28 03:24:13;;;;;;;4.10;3.70;;;18.10;99.90;;;;;;5095873;28;20448;-75
2022/08/28 03:26:42;;;;;;;5.10;3.07;;;18.10;99.90;;;;;;5095333;28;20982;-75
2022/08/28 03:29:09;;;;;;;7.60;2.70;;;18.10;99.90;;;;;;5095376;28;20697;-75
2022/08/28 03:31:37;;;;;;;6.10;2.10;;;18.00;99.90;;;;;;5095648;28;20463;-75
2022/08/28 03:34:05;;;;;;;3.67;2.00;;;18.10;99.90;;;;;;5095669;28;20448;-75
2022/08/28 03:36:33;;;;;;;5.60;2.37;;;18.10;99.90;;;;;;5095645;28;20444;-75
2022/08/28 03:39:03;;;;;;;4.20;2.77;;;18.10;99.90;;;;;;5095255;28;20447;-75
2022/08/28 03:41:30;;;;;;;2.43;2.23;;;18.10;99.90;;;;;;5095315;28;20894;-75
2022/08/28 03:44:00;;;;;;;4.17;1.77;;;18.10;99.90;;;;;;5095518;28;20444;-75
2022/08/28 03:46:28;;;;;;;2.60;1.63;;;18.00;99.90;;;;;;5095187;28;20444;-75
2022/08/28 03:48:55;;;;;;;7.70;3.00;;;18.00;99.90;;;;;;5095223;28;20522;-74
2022/08/28 03:51:25;;;;;;;3.33;1.80;;;18.00;99.90;;;;;;5095287;28;20467;-75
2022/08/28 03:53:52;;;;;;;5.43;2.17;;;18.00;99.90;;;;;;5094926;28;20935;-74
2022/08/28 03:56:21;;;;;;;7.00;3.50;;;18.00;99.90;;;;;;5095250;28;20451;-74
2022/08/28 03:58:51;;;;;;;4.67;1.77;;;18.00;99.90;;;;;;5095197;28;20446;-74
2022/08/28 04:01:19;;;;;;;4.53;1.70;;;18.00;99.90;;;;;;5095080;28;20452;-74
2022/08/28 04:03:45;;;;;;;6.27;2.67;;;18.00;99.90;;;;;;5095075;28;20452;-75
2022/08/28 04:06:13;;;;;;;7.73;2.20;;;18.10;99.90;;;;;;5095043;28;20470;-74
2022/08/28 04:08:40;;;;;;;4.67;1.60;;;18.10;99.90;;;;;;5094902;28;20484;-75
2022/08/28 04:11:07;;;;;;;4.17;1.80;;;18.10;99.90;;;;;;5094883;28;20553;-75
2022/08/28 04:13:34;;;;;;;11.90;2.80;;;18.10;99.90;;;;;;5094890;28;20448;-74
2022/08/28 04:16:03;;;;;;;6.63;2.33;;;18.00;99.90;;;;;;5094846;28;20451;-74
2022/08/28 04:18:31;;;;;;;5.80;2.57;;;18.00;99.90;;;;;;5094797;28;20451;-74
2022/08/28 04:21:00;;;;;;;7.73;3.17;;;18.00;99.90;;;;;;5094758;28;20497;-74
2022/08/28 04:23:26;;;;;;;2.83;1.67;;;18.00;99.90;;;;;;5094667;28;20454;-74
2022/08/28 04:25:53;;;;;;;4.10;1.97;;;18.00;99.90;;;;;;5094117;28;20841;-74
2022/08/28 04:28:21;;;;;;;4.83;2.00;;;18.00;99.90;;;;;;5094316;28;20854;-74
2022/08/28 04:30:49;;;;;;;4.40;1.90;;;18.00;99.90;;;;;;5094469;28;20558;-74
2022/08/28 04:33:15;;;;;;;2.90;1.90;;;18.00;99.90;;;;;;5094473;28;20476;-74
2022/08/28 04:35:43;;;;;;;3.80;1.70;;;18.00;99.90;;;;;;5094501;28;20448;-74
2022/08/28 04:38:10;;;;;;;4.80;1.67;;;18.00;99.90;;;;;;5094094;28;20965;-74
2022/08/28 04:40:39;;;;;;;3.53;2.23;;;18.10;99.90;;;;;;5094354;28;20875;-74
2022/08/28 04:43:06;;;;;;;5.00;1.60;;;18.10;99.90;;;;;;5094334;28;20468;-74
2022/08/28 04:45:32;;;;;;;5.63;2.73;;;18.10;99.90;;;;;;5093998;28;20451;-74
2022/08/28 04:47:59;;;;;;;4.30;1.60;;;18.10;99.90;;;;;;5094244;28;20451;-74
2022/08/28 04:50:26;;;;;;;4.67;1.90;;;18.10;99.90;;;;;;5094670;28;20484;-74
2022/08/28 04:52:54;;;;;;;3.57;1.57;;;18.10;99.90;;;;;;5093796;28;20980;-74
2022/08/28 04:55:21;;;;;;;5.33;1.50;;;18.10;99.90;;;;;;5094104;28;20455;-74
2022/08/28 04:57:47;;;;;;;4.60;2.07;;;18.10;99.90;;;;;;5094129;28;20428;-74
2022/08/28 05:00:15;;;;;;;2.97;1.33;;;18.10;99.90;;;;;;5093277;28;20443;-74
2022/08/28 05:02:42;;;;;;;9.17;2.47;;;18.10;99.90;;;;;;5093932;28;20459;-74
2022/08/28 05:05:10;;;;;;;6.17;2.00;;;18.20;99.90;;;;;;5093963;28;20440;-74
2022/08/28 05:07:37;;;;;;;8.30;3.00;;;18.20;99.90;;;;;;5093919;28;20448;-74
2022/08/28 05:10:06;;;;;;;4.23;1.93;;;18.20;99.90;;;;;;5093789;28;20476;-74
2022/08/28 05:12:35;;;;;;;3.83;2.70;;;18.20;99.90;;;;;;5093446;28;20491;-74
2022/08/28 05:15:02;;;;;;;5.83;2.30;;;18.20;99.90;;;;;;5093793;28;20455;-74
2022/08/28 05:17:28;;;;;;;5.87;2.57;;;18.30;99.90;;;;;;5093548;28;20436;-74
2022/08/28 05:19:55;;;;;;;5.73;2.30;;;18.20;99.90;;;;;;5093752;28;20444;-75
2022/08/28 05:22:22;;;;;;;5.07;2.23;;;18.30;99.90;;;;;;5093628;28;20471;-74
2022/08/28 05:24:49;;;;;;;4.17;2.47;;;18.20;99.90;;;;;;5093349;28;20485;-74
2022/08/28 05:27:17;;;;;;;3.03;1.80;;;18.30;99.90;;;;;;5093699;28;20420;-75
2022/08/28 05:29:44;;;;;;;4.00;2.07;;;18.30;99.90;;;;;;5093538;28;20480;-74
2022/08/28 05:32:10;;;;;;;5.00;2.33;;;18.30;99.90;;;;;;5093195;28;20971;-75
2022/08/28 05:34:37;;;;;;;3.90;1.73;;;18.30;99.90;;;;;;5093231;28;20966;-74
2022/08/28 05:37:05;;;;;;;6.20;1.80;;;18.30;99.90;;;;;;5093531;28;20447;-74
2022/08/28 05:39:32;;;;;;;8.30;2.90;;;18.30;99.90;;;;;;5093470;28;20451;-74
2022/08/28 05:41:58;;;;;;;3.07;2.00;;;18.30;99.90;;;;;;5093101;28;20471;-74
2022/08/28 05:44:26;;;;;;;3.53;1.63;;;18.30;99.90;;;;;;5093458;28;20458;-75
2022/08/28 05:46:54;;;;;;;6.87;3.37;;;18.30;99.90;;;;;;5093418;28;20451;-74
2022/08/28 05:49:21;;;;;;;3.83;1.70;;;18.40;99.90;;;;;;5093275;28;20490;-74
2022/08/28 05:51:48;;;;;;;4.97;1.77;;;18.40;99.90;;;;;;5093307;28;20478;-74
2022/08/28 05:54:16;;;;;;;7.97;2.47;;;18.40;99.90;;;;;;5093023;28;20947;-74
2022/08/28 05:56:44;;;;;;;4.50;1.77;;;18.40;99.90;;;;;;5093313;28;20447;-74
2022/08/28 05:59:12;;;;;;;5.13;1.93;;;18.40;99.90;;;;;;5092980;28;20443;-74
2022/08/28 06:01:43;;;;;;;6.43;1.80;;;18.30;99.90;;;;;;5093244;28;20619;-74
2022/08/28 06:04:13;;;;;;;8.60;2.40;;;18.40;99.90;;;;;;5092985;28;20968;-74
2022/08/28 06:06:40;;;;;;;10.57;2.70;;;18.40;99.90;;;;;;5093239;28;20455;-74
2022/08/28 06:09:11;;;;;;;4.53;2.23;;;18.50;99.90;;;;;;5093153;28;20446;-74
2022/08/28 06:11:38;;;;;;;10.07;1.90;;;18.50;99.90;;;;;;5096650;28;20464;-74
2022/08/28 06:14:08;;;;;;;4.60;2.13;;;18.40;99.90;;;;;;5096891;28;20935;-74
2022/08/28 06:16:36;;;;;;;2.43;1.33;;;18.30;99.90;;;;;;5097188;28;20521;-74
2022/08/28 06:19:05;;;;;;;3.33;1.77;;;18.30;99.90;;;;;;5097160;28;20448;-74
2022/08/28 06:21:32;;;;;;;6.20;2.13;;;18.40;99.90;;;;;;5097049;28;20520;-74
2022/08/28 06:23:59;;;;;;;5.47;3.43;;;18.30;99.90;;;;;;5096777;28;20935;-74
2022/08/28 06:26:26;;;;;;;5.53;3.50;;;18.40;99.90;;;;;;5096654;28;20475;-74
2022/08/28 06:28:53;;;;;;;5.60;2.40;;;18.30;99.90;;;;;;5096976;28;20451;-74
2022/08/28 06:31:20;;;;;;;4.37;2.07;;;18.40;99.90;;;;;;5096536;28;20483;-74
2022/08/28 06:33:46;;;;;;;4.60;1.63;;;18.30;99.90;;;;;;5096894;28;20448;-74
2022/08/28 06:36:14;;;;;;;4.77;2.80;;;18.30;99.90;;;;;;5096509;28;20943;-75
2022/08/28 06:38:45;;;;;;;10.53;2.57;;;18.30;99.90;;;;;;5096774;28;20448;-74
2022/08/28 06:41:12;;;;;;;4.33;1.80;;;18.30;99.90;;;;;;5096671;28;20441;-74
2022/08/28 06:43:39;;;;;;;4.20;1.30;;;18.40;99.90;;;;;;5096705;28;20444;-74
2022/08/28 06:46:06;;;;;;;3.50;3.03;;;18.50;99.90;;;;;;5096312;28;20947;-74
2022/08/28 06:48:33;;;;;;;3.00;2.23;;;18.50;99.90;;;;;;5096289;28;20444;-74
2022/08/28 06:50:59;;;;;;;4.13;1.50;;;18.50;99.90;;;;;;5096386;28;20483;-74
2022/08/28 06:53:30;;;;;;;2.20;1.40;;;18.50;99.90;;;;;;5096470;28;20448;-74
2022/08/28 06:55:59;;;;;;;3.27;2.13;;;18.60;99.90;;;;;;5096909;28;20452;-74
2022/08/28 06:58:27;;;;;;;4.70;2.30;;;18.60;99.90;;;;;;5096381;28;20448;-74
2022/08/28 07:01:01;;;;;;;6.83;2.27;;;18.60;99.90;;;;;;5096093;28;20485;-74
2022/08/28 07:03:29;;;;;;;1.93;1.57;;;18.70;99.90;;;;;;5096336;28;20429;-74
2022/08/28 07:05:57;;;;;;;6.00;2.30;;;18.80;99.90;;;;;;5096252;28;20452;-74
2022/08/28 07:08:24;;;;;;;6.67;3.00;;;18.80;99.90;;;;;;5095866;28;20939;-73
2022/08/28 07:10:53;;;;;;;5.70;1.67;;;18.80;99.90;;;;;;5096099;28;20840;-74
2022/08/28 07:13:20;;;;;;;3.97;1.43;;;18.80;99.90;;;;;;5095745;28;20899;-74
2022/08/28 07:15:47;;;;;;;4.77;1.87;;;18.80;99.90;;;;;;5096063;28;20483;-74
2022/08/28 07:18:14;;;;;;;2.97;1.40;;;18.80;99.90;;;;;;5096067;28;20450;-74
2022/08/28 07:20:41;;;;;;;4.33;1.93;;;18.80;99.90;;;;;;5095636;28;20444;-74
2022/08/28 07:23:07;;;;;;;3.03;2.10;;;18.70;99.90;;;;;;5095053;28;20467;-74
2022/08/28 07:25:38;;;;;;;3.70;2.00;;;18.80;99.90;;;;;;5095550;28;20480;-74
2022/08/28 07:28:06;;;;;;;4.97;2.53;;;18.80;99.90;;;;;;5095871;28;20431;-74
2022/08/28 07:30:33;;;;;;;9.83;3.50;;;18.80;99.90;;;;;;5095706;28;20494;-74
2022/08/28 07:33:01;;;;;;;2.07;1.47;;;18.80;99.90;;;;;;5095671;28;20470;-74
2022/08/28 07:35:27;;;;;;;4.20;1.37;;;18.70;99.90;;;;;;5095631;28;20452;-74
2022/08/28 07:37:54;;;;;;;4.83;3.13;;;18.70;99.90;;;;;;5095629;28;20443;-74
2022/08/28 07:40:21;;;;;;;6.93;1.77;;;18.80;99.90;;;;;;5095598;28;20792;-74
2022/08/28 07:45:35;;;;;;;6.73;2.30;;;18.80;99.90;;;;;;5095461;28;20416;-75
2022/08/28 07:48:05;;;;;;;4.07;1.70;;;18.90;99.90;;;;;;5095494;28;20493;-74
2022/08/28 07:50:31;;;;;;;5.53;3.03;;;18.90;99.90;;;;;;5095189;28;20534;-74
2022/08/28 07:52:58;;;;;;;5.70;1.50;;;18.90;99.90;;;;;;5095244;28;20464;-74
2022/08/28 07:55:26;;;;;;;16.17;3.87;;;18.90;99.90;;;;;;5095305;28;20455;-74
2022/08/28 07:57:54;;;;;;;4.20;2.00;;;19.00;99.90;;;;;;5094941;28;21010;-74
2022/08/28 08:00:21;;;;;;;5.87;2.17;;;19.00;99.90;;;;;;5095150;28;20444;-74
2022/08/28 08:02:49;;;;;;;8.63;2.60;;;19.00;99.90;;;;;;5094789;28;21006;-74
2022/08/28 08:05:16;;;;;;;5.23;2.13;;;19.10;99.90;;;;;;5095091;28;20455;-74
2022/08/28 08:07:43;;;;;;;7.07;2.23;;;19.10;99.90;;;;;;5095100;28;20448;-74
2022/08/28 08:10:12;;;;;;;4.97;2.47;;;19.20;99.90;;;;;;5094896;28;20475;-75
2022/08/28 08:12:41;;;;;;;3.33;1.90;;;19.20;99.90;;;;;;5094960;28;20467;-75
2022/08/28 08:15:08;;;;;;;6.30;3.00;;;19.30;99.90;;;;;;5094871;28;20473;-75
2022/08/28 08:17:35;;;;;;;5.80;2.60;;;19.40;99.90;;;;;;5094842;28;20440;-75
2022/08/28 08:20:04;;;;;;;3.70;2.20;;;19.30;99.90;;;;;;5094486;28;20927;-75
2022/08/28 08:22:32;;;;;;;6.63;2.07;;;19.20;99.90;;;;;;5094419;28;21039;-75
2022/08/28 08:24:59;;;;;;;3.40;1.10;;;19.20;99.90;;;;;;5094398;28;21017;-75
2022/08/28 08:27:26;;;;;;;4.30;1.47;;;19.30;99.90;;;;;;5094794;28;20468;-75
2022/08/28 08:29:53;;;;;;;6.03;1.47;;;19.40;99.90;;;;;;5094269;28;20440;-75
2022/08/28 08:32:20;;;;;;;7.93;2.60;;;19.30;99.90;;;;;;5094565;28;20533;-75
2022/08/28 08:34:48;;;;;;;4.50;1.87;;;19.30;99.90;;;;;;5093487;28;20444;-75
2022/08/28 08:37:16;;;;;;;3.70;1.67;;;19.30;99.90;;;;;;5094514;28;20502;-75
2022/08/28 08:39:43;;;;;;;7.77;1.87;;;19.30;99.90;;;;;;5094399;28;20448;-74
2022/08/28 08:42:21;;;;;;;2.83;1.83;;;19.50;99.90;;;;;;5094337;28;20467;-74
2022/08/28 08:44:49;;;;;;;3.70;1.93;;;19.60;99.90;;;;;;5094398;28;20432;-75
2022/08/28 08:47:21;;;;;;;3.37;1.40;;;19.70;99.90;;;;;;5094316;28;20455;-75
2022/08/28 08:49:51;;;;;;;4.67;2.20;;;19.80;99.90;;;;;;5094234;28;20428;-74
2022/08/28 08:52:36;;;;;;;2.90;1.70;;;19.70;99.90;;;;;;5093865;28;21018;-74
2022/08/28 08:55:20;;;;;;;2.20;1.73;;;19.70;99.90;;;;;;5094202;28;20428;-74
2022/08/28 08:57:51;;;;;;;4.70;1.93;;;19.80;99.90;;;;;;5094101;28;20428;-75
2022/08/28 09:00:18;;;;;;;2.67;1.87;;;19.90;99.90;;;;;;5094312;28;20447;-74
2022/08/28 09:02:50;;;;;;;3.47;1.47;;;20.10;99.90;;;;;;5094007;28;20468;-74
2022/08/28 09:05:20;;;;;;;2.60;2.00;;;20.20;99.90;;;;;;5094077;28;20435;-75
2022/08/28 09:07:55;;;;;;;3.73;1.77;;;20.40;99.90;;;;;;5093704;28;20440;-75
2022/08/28 09:10:23;;;;;;;6.50;2.20;;;20.50;99.90;;;;;;5093618;28;21061;-75
2022/08/28 09:12:56;;;;;;;4.10;2.40;;;20.70;99.90;;;;;;5093534;28;20975;-75
2022/08/28 09:15:29;;;;;;;4.67;2.57;;;20.90;99.90;;;;;;5093572;28;20904;-77
2022/08/28 09:18:06;;;;;;;2.70;1.80;;;21.00;99.90;;;;;;5093899;28;20431;-78
2022/08/28 09:20:32;;;;;;;2.07;1.87;;;21.10;99.90;;;;;;5093537;28;20902;-78
2022/08/28 09:23:01;;;;;;;1.80;1.23;;;21.20;99.90;;;;;;5093347;28;20831;-78
2022/08/28 09:25:51;;;;;;;4.20;2.47;;;21.20;99.90;;;;;;5093443;28;20479;-78
2022/08/28 09:28:21;;;;;;;3.20;1.30;;;21.30;99.90;;;;;;5093798;28;20428;-78
2022/08/28 09:30:56;;;;;;;3.73;1.97;;;21.40;99.90;;;;;;5093414;28;20479;-78
2022/08/28 09:33:40;;;;;;;5.73;2.57;;;21.70;99.90;;;;;;5093922;28;20474;-79
2022/08/28 09:36:30;;;;;;;3.70;2.40;;;22.20;99.90;;;;;;5093648;28;20463;-77
2022/08/28 09:39:08;;;;;;;6.40;1.53;;;22.50;99.90;;;;;;5089460;28;20475;-77
2022/08/28 09:44:22;;;;;;;2.23;1.60;;;22.50;99.90;;;;;;5093392;28;20414;-77
2022/08/28 09:46:51;;;;;;;2.17;1.97;;;22.40;99.90;;;;;;5093284;28;20448;-77
2022/08/28 09:49:24;;;;;;;3.13;2.00;;;22.40;99.90;;;;;;5093495;28;20496;-78
2022/08/28 09:51:51;;;;;;;3.40;1.97;;;22.50;99.90;;;;;;5093343;28;20486;-78
2022/08/28 09:54:25;;;;;;;1.60;1.50;;;22.50;99.90;;;;;;5093124;28;20958;-78
2022/08/28 09:56:52;;;;;;;4.80;2.50;;;22.60;99.90;;;;;;5093429;28;20435;-77
2022/08/28 09:59:22;;;;;;;2.50;2.17;;;22.60;99.90;;;;;;5093364;28;20446;-77
2022/08/28 10:02:00;;;;;;;2.80;1.93;;;22.60;99.90;;;;;;5093322;28;20470;-77
2022/08/28 10:04:45;;;;;;;3.30;2.50;;;22.50;99.90;;;;;;5093075;28;20894;-77
2022/08/28 10:07:19;;;;;;;1.50;1.20;;;22.60;99.90;;;;;;5093073;28;20423;-78
2022/08/28 10:09:55;;;;;;;2.40;1.67;;;22.50;99.90;;;;;;5093189;28;20448;-77
2022/08/28 10:12:35;;;;;;;2.93;1.47;;;22.50;99.90;;;;;;5093202;28;20487;-77
2022/08/28 10:15:10;;;;;;;2.57;1.83;;;22.50;99.90;;;;;;5092956;28;20907;-78
2022/08/28 10:17:46;;;;;;;2.50;1.97;;;22.50;99.90;;;;;;5093230;28;20427;-78
2022/08/28 10:20:19;;;;;;;1.90;1.23;;;22.50;99.90;;;;;;5093249;28;20458;-78
2022/08/28 10:22:53;;;;;;;2.63;1.47;;;22.50;99.90;;;;;;5092811;28;21001;-77
2022/08/28 10:25:28;;;;;;;1.53;1.00;;;22.40;99.90;;;;;;5092918;28;20479;-77
2022/08/28 10:28:18;;;;;;;3.37;1.60;;;22.50;99.90;;;;;;5093189;28;20430;-77
2022/08/28 10:30:53;;;;;;;1.93;1.10;;;22.50;99.90;;;;;;5092717;28;20962;-78
2022/08/28 10:33:37;;;;;;;3.10;1.60;;;22.60;99.90;;;;;;5093000;28;20462;-78
2022/08/28 10:36:10;;;;;;;2.50;1.97;;;22.90;99.90;;;;;;5093084;28;20435;-78
2022/08/28 10:38:39;;;;;;;2.47;1.63;;;23.10;99.90;;;;;;5093042;28;20427;-77
2022/08/28 10:41:11;;;;;;;1.53;1.23;;;23.40;99.90;;;;;;5092924;28;20447;-77
2022/08/28 10:43:43;;;;;;;2.23;1.47;;;23.50;99.90;;;;;;5092715;28;20432;-78
2022/08/28 10:46:13;;;;;;;2.20;1.53;;;23.40;99.90;;;;;;5092961;28;20423;-78
2022/08/28 10:48:45;;;;;;;4.30;1.87;;;23.20;99.90;;;;;;5092978;28;20787;-77
2022/08/28 10:51:17;;;;;;;1.67;1.33;;;23.00;99.90;;;;;;5092786;28;20478;-77
2022/08/28 10:53:48;;;;;;;2.27;1.67;;;22.80;99.90;;;;;;5092852;28;20424;-77
2022/08/28 10:56:21;;;;;;;2.63;1.43;;;22.70;99.90;;;;;;5092898;28;20431;-77
2022/08/28 10:58:49;;;;;;;1.40;1.00;;;22.50;99.90;;;;;;5096174;28;20442;-77
2022/08/28 11:01:24;;;;;;;4.47;2.30;;;22.60;99.90;;;;;;5096323;28;20439;-77
2022/08/28 11:03:52;;;;;;;3.23;2.77;;;22.60;99.90;;;;;;5096413;28;20442;-77
2022/08/28 11:06:26;;;;;;;2.20;1.40;;;22.70;99.90;;;;;;5096308;28;20443;-77
2022/08/28 11:08:55;;;;;;;1.40;1.30;;;22.70;99.90;;;;;;5096288;28;20484;-77
2022/08/28 11:11:42;;;;;;;4.17;1.60;;;22.60;99.90;;;;;;5096067;28;20860;-77
2022/08/28 11:14:09;;;;;;;1.90;1.37;;;22.50;99.90;;;;;;5096232;28;20428;-77
2022/08/28 11:16:41;;;;;;;3.67;2.17;;;22.50;99.90;;;;;;5096113;28;20846;-77
2022/08/28 11:19:30;;;;;;;3.10;1.47;;;22.50;99.90;;;;;;5096106;28;20428;-77
2022/08/28 11:22:03;;;;;;;1.83;1.50;;;22.50;99.90;;;;;;5095945;28;20460;-77
2022/08/28 11:24:42;;;;;;;3.10;1.60;;;22.50;99.90;;;;;;5096011;28;20558;-77
2022/08/28 11:27:29;;;;;;;3.10;1.80;;;22.50;99.90;;;;;;5095974;28;20423;-77
2022/08/28 11:30:25;;;;;;;2.07;1.40;;;22.60;99.90;;;;;;5095560;28;20925;-78
2022/08/28 11:33:01;;;;;;;1.70;1.60;;;22.70;99.90;;;;;;5095359;28;21066;-78
2022/08/28 11:35:49;;;;;;;1.73;1.40;;;22.80;99.90;;;;;;5095756;28;20427;-77
2022/08/28 11:38:54;;;;;;;1.77;1.20;;;22.80;99.90;;;;;;5095692;28;20435;-77
2022/08/28 11:41:25;;;;;;;1.93;1.80;;;22.80;99.90;;;;;;5095521;28;20832;-77
2022/08/28 11:44:27;;;;;;;2.50;1.30;;;22.80;99.90;;;;;;5095634;28;20434;-77
2022/08/28 11:46:57;;;;;;;2.53;1.77;;;22.70;99.90;;;;;;5095558;28;20458;-77
2022/08/28 11:49:41;;;;;;;3.17;1.70;;;22.60;99.90;;;;;;5095169;28;20926;-77
2022/08/28 11:52:25;;;;;;;3.30;1.70;;;22.70;99.90;;;;;;5095019;28;20855;-77
2022/08/28 11:55:00;;;;;;;1.43;1.33;;;22.80;99.90;;;;;;5095453;28;20428;-77
2022/08/28 11:57:46;;;;;;;3.10;1.70;;;22.90;99.90;;;;;;5095369;28;20423;-77
2022/08/28 12:00:23;;;;;;;1.40;1.30;;;23.00;99.90;;;;;;5095332;28;20420;-77
2022/08/28 12:02:54;;;;;;;2.03;1.50;;;23.10;99.90;;;;;;5095213;28;20470;-77
2022/08/28 12:05:43;;;;;;;1.53;1.43;;;23.20;99.90;;;;;;5095235;28;20432;-77
2022/08/28 12:08:11;;;;;;;3.60;1.43;;;23.30;99.90;;;;;;5094873;28;20432;-77
2022/08/28 12:10:57;;;;;;;3.60;2.60;;;23.40;99.90;;;;;;5095024;28;20443;-77
2022/08/28 12:13:47;;;;;;;5.80;2.23;;;23.40;99.90;;;;;;5094655;28;20978;-77
2022/08/28 12:16:15;;;;;;;1.77;1.17;;;23.50;99.90;;;;;;5095003;28;20517;-77
2022/08/28 12:19:04;;;;;;;1.20;1.10;;;23.60;99.90;;;;;;5094907;28;20443;-77
2022/08/28 12:21:39;;;;;;;2.00;1.70;;;23.60;99.90;;;;;;5094840;28;20218;-74
2022/08/28 12:24:21;;;;;;;2.07;1.60;;;23.40;99.90;;;;;;5094540;28;20902;-74
2022/08/28 12:26:53;;;;;;;2.20;1.67;;;23.40;99.90;;;;;;5094365;28;20479;-74
2022/08/28 12:29:29;;;;;;;2.70;1.40;;;23.50;99.90;;;;;;5094737;28;20440;-74
2022/08/28 12:32:18;;;;;;;4.20;1.40;;;23.60;99.90;;;;;;5094517;28;20490;-74
2022/08/28 12:35:06;;;;;;;1.27;1.17;;;23.40;99.90;;;;;;5094673;28;20423;-74
2022/08/28 12:37:36;;;;;;;2.80;1.13;;;23.50;99.90;;;;;;5094596;28;20432;-75
2022/08/28 12:40:12;;;;;;;1.53;1.17;;;23.40;99.90;;;;;;5094228;28;20432;-75
2022/08/28 12:42:46;;;;;;;2.40;1.73;;;23.30;99.90;;;;;;5094429;28;20824;-75
2022/08/28 12:45:20;;;;;;;2.23;1.77;;;23.20;99.90;;;;;;5094134;28;20929;-75
2022/08/28 12:47:49;;;;;;;2.20;1.33;;;23.20;99.90;;;;;;5094388;28;20428;-75
2022/08/28 12:50:28;;;;;;;1.43;1.27;;;23.20;99.90;;;;;;5094296;28;20450;-75
2022/08/28 12:52:57;;;;;;;2.00;1.20;;;23.30;99.90;;;;;;5094135;28;20486;-78
2022/08/28 12:55:25;;;;;;;2.63;1.97;;;23.30;99.90;;;;;;5094232;28;20459;-75
2022/08/28 12:57:53;;;;;;;1.30;1.20;;;23.50;99.90;;;;;;5093896;28;20947;-74
2022/08/28 13:00:23;;;;;;;1.50;1.40;;;23.70;99.90;;;;;;5094190;28;20428;-74
2022/08/28 13:02:53;;;;;;;2.00;1.27;;;23.60;99.90;;;;;;5094060;28;20471;-74
2022/08/28 13:05:39;;;;;;;2.73;1.83;;;23.50;99.90;;;;;;5094113;28;20428;-74
2022/08/28 13:08:08;;;;;;;1.37;1.10;;;23.40;99.90;;;;;;5093724;28;20435;-74
2022/08/28 13:10:38;;;;;;;2.30;1.30;;;23.40;99.90;;;;;;5093638;28;20943;-74